Time;durP1;ratioP1;P1;durP2;ratioP2;P2;SDS_P1;SDS_P2;PMS_P1;PMS_P2;Temp;Humidity;BMP_temperature;BMP_pressure;BME280_temperature;BME280_humidity;BME280_pressure;Samples;Min_cycle;Max_cycle;Signal;HPM_P1;HPM_P2
2022/12/31 00:02:48;;;;;;;2.95;1.55;;;;;;;10.86;nan;99998.66;10517523;28;20040;-78
2022/12/31 00:07:49;;;;;;;2.17;1.30;;;;;;;10.87;nan;100001.28;10517436;28;20459;-78
2022/12/31 00:12:51;;;;;;;2.65;1.10;;;;;;;10.91;nan;100003.06;10516397;28;20070;-78
2022/12/31 00:17:53;;;;;;;1.65;0.90;;;;;;;10.91;nan;99999.53;10532976;28;20093;-78
2022/12/31 00:22:54;;;;;;;3.58;1.65;;;;;;;10.90;nan;100001.28;10523896;28;20048;-78
2022/12/31 00:27:56;;;;;;;1.85;1.27;;;;;;;10.89;nan;100006.53;10515424;28;20054;-78
2022/12/31 00:32:58;;;;;;;5.63;1.63;;;;;;;10.85;nan;100010.00;10515997;28;20070;-78
2022/12/31 00:37:59;;;;;;;1.85;1.10;;;;;;;10.77;nan;100018.69;10529068;28;20044;-78
2022/12/31 00:43:01;;;;;;;3.03;1.35;;;;;;;10.77;nan;100023.94;10526618;28;20043;-76
2022/12/31 00:48:03;;;;;;;2.28;1.55;;;;;;;10.71;nan;100017.81;10527450;28;20087;-78
2022/12/31 00:53:04;;;;;;;1.70;0.93;;;;;;;10.65;nan;100018.66;10509908;28;20113;-78
2022/12/31 00:58:06;;;;;;;1.20;1.00;;;;;;;10.63;nan;100012.53;10526238;28;20671;-80
2022/12/31 01:03:08;;;;;;;1.52;0.95;;;;;;;10.61;nan;100006.41;10520912;28;20090;-79
2022/12/31 01:08:09;;;;;;;1.52;1.20;;;;;;;10.58;nan;100016.88;10527777;28;20715;-79
2022/12/31 01:13:11;;;;;;;2.22;1.00;;;;;;;10.58;nan;100023.00;10529101;28;20071;-78
2022/12/31 01:18:13;;;;;;;2.13;1.40;;;;;;;10.60;nan;100023.00;10507624;28;20077;-77
2022/12/31 01:23:14;;;;;;;7.55;1.92;;;;;;;10.61;nan;100032.59;10507173;28;20075;-78
2022/12/31 01:28:16;;;;;;;0.93;0.73;;;;;;;10.64;nan;100034.34;10524154;28;20519;-77
2022/12/31 01:33:18;;;;;;;0.70;0.70;;;;;;;10.65;nan;100039.59;10506816;28;20063;-78
2022/12/31 01:38:19;;;;;;;2.33;1.17;;;;;;;10.67;nan;100030.00;10525329;28;20040;-77
2022/12/31 01:43:21;;;;;;;0.98;0.70;;;;;;;10.69;nan;100025.66;10524925;28;20117;-78
2022/12/31 01:48:25;;;;;;;1.23;0.90;;;;;;;10.69;nan;100028.28;10523559;28;20577;-77
2022/12/31 01:53:27;;;;;;;1.02;0.90;;;;;;;10.66;nan;100041.34;10505448;28;20122;-79
2022/12/31 01:58:35;;;;;;;1.67;1.00;;;;;;;10.68;nan;100046.59;10523001;28;20701;-78
2022/12/31 02:03:37;;;;;;;1.85;0.90;;;;;;;10.66;nan;100057.06;10523806;28;20104;-78
2022/12/31 02:08:39;;;;;;;1.15;0.80;;;;;;;10.73;nan;100061.47;10504112;28;20044;-78
2022/12/31 02:13:42;;;;;;;1.38;0.82;;;;;;;10.73;nan;100052.72;10524230;28;20059;-78
2022/12/31 02:19:04;;;;;;;2.35;1.00;;;;;;;10.72;nan;100057.09;10504555;28;20062;-78
2022/12/31 02:24:27;;;;;;;0.82;0.70;;;;;;;10.76;nan;100055.34;10523115;28;20503;-78
2022/12/31 02:29:59;;;;;;;1.15;0.90;;;;;;;10.71;nan;100063.19;10521561;28;20064;-78
2022/12/31 02:35:36;;;;;;;1.15;0.68;;;;;;;10.70;nan;100048.34;10522093;28;20090;-78
2022/12/31 02:40:38;;;;;;;0.88;0.73;;;;;;;10.70;nan;100052.72;10522867;28;20054;-78
2022/12/31 02:45:45;;;;;;;0.95;0.60;;;;;;;10.70;nan;100064.03;10505491;28;20113;-78
2022/12/31 02:50:59;;;;;;;1.45;0.85;;;;;;;10.71;nan;100046.63;10524010;28;20043;-78
2022/12/31 02:56:08;;;;;;;0.82;0.60;;;;;;;10.67;nan;100048.31;10522118;28;20048;-77
2022/12/31 03:06:32;;;;;;;1.38;0.95;;;;;;;10.66;nan;100032.59;10515848;28;20021;-77
2022/12/31 03:16:54;;;;;;;0.82;0.73;;;;;;;10.58;nan;100035.19;10521584;28;20060;-78
2022/12/31 03:27:15;;;;;;;1.13;0.70;;;;;;;10.52;nan;100038.66;10520131;28;20137;-78
2022/12/31 03:32:17;;;;;;;0.60;0.60;;;;;;;10.49;nan;100048.22;10509111;28;20577;-78
2022/12/31 03:37:19;;;;;;;0.85;0.70;;;;;;;10.44;nan;100067.41;10527965;28;21008;-78
2022/12/31 03:42:21;;;;;;;0.60;0.50;;;;;;;10.38;nan;100054.28;10528057;28;20036;-78
2022/12/31 03:47:22;;;;;;;0.57;0.57;;;;;;;10.36;nan;100040.31;10527620;28;20062;-78
2022/12/31 03:52:24;;;;;;;1.33;0.73;;;;;;;10.35;nan;100054.25;10510344;28;20838;-78
2022/12/31 03:57:25;;;;;;;0.98;0.63;;;;;;;10.30;nan;100035.03;10527795;28;20060;-78
2022/12/31 04:02:27;;;;;;;0.38;0.38;;;;;;;10.25;nan;100028.88;10527574;28;20089;-78
2022/12/31 04:07:30;;;;;;;1.08;0.80;;;;;;;10.21;nan;100034.97;10508512;28;20050;-78
2022/12/31 04:12:31;;;;;;;0.57;0.57;;;;;;;10.13;nan;100013.97;10527533;28;20092;-78
2022/12/31 04:17:33;;;;;;;0.10;0.10;;;;;;;10.09;nan;99992.16;10527298;28;20086;-79
2022/12/31 04:22:36;;;;;;;0.30;0.30;;;;;;;10.08;nan;100010.44;10511311;28;20391;-78
2022/12/31 04:27:39;;;;;;;0.55;0.30;;;;;;;10.04;nan;100016.50;10529241;28;20044;-78
2022/12/31 04:32:42;;;;;;;0.30;0.30;;;;;;;10.01;nan;100025.25;10526030;28;20042;-78
2022/12/31 04:37:46;;;;;;;0.63;0.50;;;;;;;10.00;nan;100023.47;10505287;28;20055;-78
2022/12/31 04:42:48;;;;;;;0.20;0.20;;;;;;;9.92;nan;100025.16;10525269;28;20498;-78
2022/12/31 04:47:50;;;;;;;0.20;0.20;;;;;;;9.93;nan;100041.72;10506682;28;20071;-78
2022/12/31 04:52:51;;;;;;;0.30;0.30;;;;;;;9.85;nan;100052.13;10525078;28;20120;-79
2022/12/31 04:57:53;;;;;;;0.40;0.38;;;;;;;9.83;nan;100064.31;10505981;28;20722;-78
2022/12/31 05:02:54;;;;;;;0.10;0.10;;;;;;;9.80;nan;100072.13;10525610;28;20043;-78
2022/12/31 05:07:56;;;;;;;0.40;0.32;;;;;;;9.80;nan;100086.06;10505904;28;20789;-78
2022/12/31 05:12:57;;;;;;;0.20;0.20;;;;;;;9.75;nan;100082.53;10523590;28;20138;-77
2022/12/31 05:18:00;;;;;;;0.10;0.10;;;;;;;9.70;nan;100077.28;10485533;28;20052;-78
2022/12/31 05:23:01;;;;;;;0.38;0.38;;;;;;;9.75;nan;100063.38;10523541;28;20062;-78
2022/12/31 05:28:03;;;;;;;0.30;0.30;;;;;;;9.77;nan;100067.72;10503958;28;20121;-78
2022/12/31 05:33:04;;;;;;;0.40;0.40;;;;;;;9.76;nan;100067.72;10522725;28;20072;-78
2022/12/31 05:38:06;;;;;;;1.85;0.57;;;;;;;9.77;nan;100077.31;10504720;28;20125;-78
2022/12/31 05:43:08;;;;;;;0.22;0.22;;;;;;;9.78;nan;100069.50;10522896;28;20055;-78
2022/12/31 05:48:10;;;;;;;0.55;0.50;;;;;;;9.77;nan;100059.88;10486954;28;20064;-78
2022/12/31 05:53:11;;;;;;;1.98;0.30;;;;;;;9.76;nan;100058.16;10521677;28;20133;-77
2022/12/31 05:58:14;;;;;;;0.73;0.47;;;;;;;9.78;nan;100060.78;10502987;28;20121;-78
2022/12/31 06:03:16;;;;;;;0.20;0.20;;;;;;;9.77;nan;100066.88;10522253;28;20071;-78
2022/12/31 06:08:17;;;;;;;0.40;0.40;;;;;;;9.75;nan;100064.25;10521979;28;20064;-78
2022/12/31 06:13:19;;;;;;;0.30;0.30;;;;;;;9.75;nan;100097.38;10522297;28;20149;-78
2022/12/31 06:18:21;;;;;;;0.77;0.40;;;;;;;9.71;nan;100079.03;10501880;28;20074;-77
2022/12/31 06:23:22;;;;;;;0.63;0.40;;;;;;;9.70;nan;100079.88;10520668;28;20086;-78
2022/12/31 06:28:24;;;;;;;0.30;0.22;;;;;;;9.74;nan;100088.63;10513573;28;20068;-77
2022/12/31 06:33:26;;;;;;;0.40;0.40;;;;;;;9.72;nan;100106.03;10501902;28;20077;-79
2022/12/31 06:38:29;;;;;;;0.32;0.28;;;;;;;9.70;nan;100103.41;10492890;28;20125;-78
2022/12/31 06:43:33;;;;;;;0.32;0.30;;;;;;;9.66;nan;100074.63;10519667;28;20046;-78
2022/12/31 06:48:34;;;;;;;0.52;0.40;;;;;;;9.62;nan;100063.25;10496178;28;20580;-77
2022/12/31 06:53:36;;;;;;;0.25;0.20;;;;;;;9.62;nan;100094.59;10519821;28;20075;-76
2022/12/31 06:58:38;;;;;;;0.70;0.40;;;;;;;9.59;nan;100114.63;10500905;28;20068;-77
2022/12/31 07:03:59;;;;;;;0.30;0.20;;;;;;;9.61;nan;100123.34;10519956;28;20044;-78
2022/12/31 07:09:11;;;;;;;0.30;0.30;;;;;;;9.64;nan;100128.63;10502792;28;20129;-77
2022/12/31 07:14:40;;;;;;;0.75;0.47;;;;;;;9.62;nan;100105.06;10518425;28;20428;-78
2022/12/31 07:20:14;;;;;;;0.98;0.70;;;;;;;9.61;nan;100105.03;10513795;28;20048;-78
2022/12/31 07:25:17;;;;;;;0.40;0.40;;;;;;;9.62;nan;100107.69;10517453;28;20245;-78
2022/12/31 07:30:44;;;;;;;0.47;0.47;;;;;;;9.60;nan;100101.56;10518708;28;20144;-77
2022/12/31 07:36:19;;;;;;;0.95;0.60;;;;;;;9.65;nan;100115.56;10494667;28;20136;-76
2022/12/31 07:41:48;;;;;;;0.55;0.43;;;;;;;9.67;nan;100107.75;10519317;28;20082;-76
2022/12/31 07:46:59;;;;;;;0.93;0.70;;;;;;;9.69;nan;100111.25;10494257;28;20130;-76
2022/12/31 07:52:01;;;;;;;1.63;0.90;;;;;;;9.76;nan;100097.38;10499609;28;20048;-77
2022/12/31 07:57:03;;;;;;;1.58;1.00;;;;;;;9.80;nan;100106.13;10500958;28;20060;-78
2022/12/31 08:02:17;;;;;;;2.72;0.82;;;;;;;9.80;nan;100104.38;10493732;28;20044;-77
2022/12/31 08:07:38;;;;;;;1.00;0.60;;;;;;;9.85;nan;100115.75;10502324;28;20542;-77
2022/12/31 08:12:41;;;;;;;0.52;0.50;;;;;;;9.88;nan;100101.84;10519316;28;20491;-77
2022/12/31 08:17:42;;;;;;;1.15;0.70;;;;;;;9.89;nan;100121.88;10524954;28;20528;-77
2022/12/31 08:23:03;;;;;;;1.38;0.77;;;;;;;9.96;nan;100117.59;10508638;28;20125;-78
2022/12/31 08:28:30;;;;;;;1.15;0.70;;;;;;;9.96;nan;100110.63;10520711;28;20125;-78
2022/12/31 08:33:59;;;;;;;0.77;0.50;;;;;;;9.96;nan;100100.16;10502808;28;20071;-79
2022/12/31 08:39:18;;;;;;;0.95;0.50;;;;;;;10.02;nan;100110.66;10519179;28;20067;-76
2022/12/31 08:44:20;;;;;;;0.98;0.77;;;;;;;10.04;nan;100105.44;10525249;28;20247;-78
2022/12/31 08:49:26;;;;;;;1.60;0.60;;;;;;;10.07;nan;100102.84;10505892;28;20032;-77
2022/12/31 08:54:28;;;;;;;1.08;0.70;;;;;;;10.17;nan;100109.06;10524624;28;20519;-78
2022/12/31 08:59:56;;;;;;;0.60;0.43;;;;;;;10.19;nan;100125.63;10489527;28;20101;-78
2022/12/31 09:05:31;;;;;;;0.40;0.40;;;;;;;10.20;nan;100124.78;10523602;28;20692;-77
2022/12/31 09:10:42;;;;;;;0.63;0.63;;;;;;;10.26;nan;100127.44;10499483;28;20068;-78
2022/12/31 09:15:49;;;;;;;0.82;0.60;;;;;;;10.31;nan;100117.00;10516756;28;20507;-78
2022/12/31 09:20:51;;;;;;;0.50;0.30;;;;;;;10.34;nan;100125.78;10503866;28;20174;-78
2022/12/31 09:26:03;;;;;;;0.80;0.50;;;;;;;10.41;nan;100134.56;10522764;28;20068;-78
2022/12/31 09:31:20;;;;;;;0.85;0.52;;;;;;;10.50;nan;100118.06;10503879;28;20448;-79
2022/12/31 09:36:29;;;;;;;0.40;0.30;;;;;;;10.58;nan;100118.97;10523456;28;20051;-79
2022/12/31 09:42:13;;;;;;;0.53;0.40;;;;;;;10.66;nan;100138.22;10520402;28;20114;-81
2022/12/31 09:47:27;;;;;;;1.15;0.60;;;;;;;10.78;nan;100137.44;10498781;28;20072;-78
2022/12/31 09:52:50;;;;;;;0.43;0.28;;;;;;;10.89;nan;100137.50;10505196;28;20131;-79
2022/12/31 09:58:10;;;;;;;1.13;0.93;;;;;;;11.00;nan;100138.41;10522243;28;20058;-78
2022/12/31 10:03:39;;;;;;;0.57;0.30;;;;;;;11.13;nan;100134.09;10521561;28;20592;-78
2022/12/31 10:09:14;;;;;;;0.93;0.60;;;;;;;11.24;nan;100142.00;10353636;28;20311;-80
2022/12/31 10:15:03;;;;;;;0.28;0.20;;;;;;;11.32;nan;100141.19;10160119;28;20066;-80
2022/12/31 10:20:27;;;;;;;0.20;0.20;;;;;;;11.38;nan;100136.81;10136813;28;20402;-81
2022/12/31 10:25:48;;;;;;;0.13;0.13;;;;;;;11.53;nan;100141.22;10142717;28;20371;-80
2022/12/31 10:31:03;;;;;;;0.22;0.20;;;;;;;11.64;nan;100176.25;10154107;28;20048;-80
2022/12/31 10:36:26;;;;;;;0.25;0.25;;;;;;;11.74;nan;100180.63;10161698;28;20503;-80
2022/12/31 10:41:52;;;;;;;0.43;0.20;;;;;;;11.77;nan;100153.53;10155755;28;20317;-80
2022/12/31 10:47:19;;;;;;;0.70;0.50;;;;;;;11.82;nan;100171.03;10156010;28;20224;-80
2022/12/31 10:52:37;;;;;;;0.10;0.10;;;;;;;11.89;nan;100171.03;10155869;28;20141;-79
2022/12/31 10:58:22;;;;;;;0.20;0.17;;;;;;;11.91;nan;100188.53;10170224;28;20544;-80
2022/12/31 11:03:50;;;;;;;0.10;0.10;;;;;;;11.96;nan;100196.44;10143166;28;20639;-80
2022/12/31 11:09:19;;;;;;;0.10;0.10;;;;;;;12.02;nan;100194.72;10178436;28;20488;-79
2022/12/31 11:14:42;;;;;;;0.33;0.23;;;;;;;12.14;nan;100199.09;10175451;28;20401;-80
2022/12/31 11:20:38;;;;;;;0.10;0.10;;;;;;;12.22;nan;100198.22;10159749;28;20916;-78
2022/12/31 11:31:29;;;;;;;0.20;0.20;;;;;;;12.24;nan;100183.38;10190372;28;20361;-79
2022/12/31 11:36:32;;;;;;;0.20;0.20;;;;;;;12.24;nan;100175.50;10140280;28;20334;-79
2022/12/31 11:41:52;;;;;;;0.75;0.32;;;;;;;12.25;nan;100167.63;10177212;28;20462;-78
2022/12/31 11:47:16;;;;;;;0.20;0.20;;;;;;;12.31;nan;100166.72;10179278;28;20385;-79
2022/12/31 11:52:37;;;;;;;0.70;0.40;;;;;;;12.34;nan;100150.97;10182816;28;20239;-79
2022/12/31 11:57:48;;;;;;;0.85;0.32;;;;;;;12.35;nan;100158.00;10155666;28;20482;-79
2022/12/31 12:03:02;;;;;;;0.25;0.20;;;;;;;12.29;nan;100166.72;10173337;28;20548;-79
2022/12/31 12:08:05;;;;;;;0.80;0.38;;;;;;;12.23;nan;100161.47;10264324;28;20520;-79
2022/12/31 12:13:15;;;;;;;0.63;0.40;;;;;;;12.25;nan;100166.72;10463721;28;20051;-78
2022/12/31 12:18:23;;;;;;;0.90;0.52;;;;;;;12.32;nan;100156.22;10516594;28;20076;-78
2022/12/31 12:23:25;;;;;;;5.05;1.60;;;;;;;12.30;nan;100157.13;10504170;28;20043;-78
2022/12/31 12:28:39;;;;;;;0.10;0.10;;;;;;;12.31;nan;100153.59;10476565;28;20032;-80
2022/12/31 12:33:46;;;;;;;1.30;0.57;;;;;;;12.33;nan;100137.00;10364933;28;20243;-81
2022/12/31 12:39:00;;;;;;;0.50;0.47;;;;;;;12.32;nan;100158.84;10190035;28;20289;-81
2022/12/31 12:44:07;;;;;;;0.10;0.10;;;;;;;12.36;nan;100172.88;10289772;28;20062;-79
2022/12/31 12:49:26;;;;;;;0.55;0.20;;;;;;;12.38;nan;100165.88;10276668;28;20408;-80
2022/12/31 12:54:47;;;;;;;1.40;0.75;;;;;;;12.45;nan;100146.59;10198341;28;20591;-80
2022/12/31 12:59:54;;;;;;;1.38;0.52;;;;;;;12.49;nan;100148.38;10194106;28;20579;-81
2022/12/31 13:05:18;;;;;;;3.17;1.52;;;;;;;12.58;nan;100147.47;10202722;28;20711;-80
2022/12/31 13:10:48;;;;;;;0.70;0.67;;;;;;;12.63;nan;100144.84;10159308;28;20391;-80
2022/12/31 13:15:50;;;;;;;1.58;1.15;;;;;;;12.71;nan;100153.56;10384006;28;20043;-80
2022/12/31 13:21:11;;;;;;;1.15;0.60;;;;;;;12.77;nan;100147.44;10380061;28;20358;-80
2022/12/31 13:26:25;;;;;;;0.73;0.40;;;;;;;12.78;nan;100144.81;10393119;28;20390;-80
2022/12/31 13:31:34;;;;;;;1.27;0.80;;;;;;;12.82;nan;100150.91;10390416;28;20215;-81
2022/12/31 13:36:40;;;;;;;0.40;0.40;;;;;;;12.83;nan;100158.78;10390447;28;20051;-81
2022/12/31 13:41:54;;;;;;;1.98;0.55;;;;;;;12.82;nan;100157.06;10348600;28;20075;-80
2022/12/31 13:47:14;;;;;;;2.50;1.10;;;;;;;12.83;nan;100166.69;10382835;28;20508;-80
2022/12/31 13:52:47;;;;;;;12.77;5.85;;;;;;;12.77;nan;100165.84;10363542;28;20575;-81
2022/12/31 13:58:20;;;;;;;5.65;2.92;;;;;;;12.69;nan;100194.75;10358515;28;20332;-81
2022/12/31 14:03:28;;;;;;;5.55;3.20;;;;;;;12.59;nan;100191.22;10152870;28;20531;-81
2022/12/31 14:08:32;;;;;;;3.83;1.27;;;;;;;12.52;nan;100203.50;10160395;28;20479;-77
2022/12/31 14:14:14;;;;;;;0.82;0.73;;;;;;;12.42;nan;100208.75;10164177;28;20270;-86
2022/12/31 14:19:55;;;;;;;0.40;0.40;;;;;;;12.26;nan;100200.00;10178004;28;20593;-83
2022/12/31 14:25:03;;;;;;;1.45;1.35;;;;;;;12.24;nan;100199.13;10146421;28;20407;-84
2022/12/31 14:30:09;;;;;;;1.23;0.38;;;;;;;12.23;nan;100200.84;10160327;28;20389;-84
2022/12/31 14:35:25;;;;;;;4.57;1.90;;;;;;;12.25;nan;100208.72;10170244;28;20544;-84
2022/12/31 14:41:08;;;;;;;1.50;0.85;;;;;;;12.26;nan;100186.88;10161089;28;20491;-82
2022/12/31 14:46:29;;;;;;;1.70;1.05;;;;;;;12.33;nan;100201.75;10140447;28;20535;-84
2022/12/31 14:51:47;;;;;;;4.20;1.50;;;;;;;12.46;nan;100210.50;10149316;28;20469;-84
2022/12/31 14:56:50;;;;;;;8.30;2.75;;;;;;;12.53;nan;100218.38;10142738;28;20435;-85
2022/12/31 15:01:57;;;;;;;2.15;0.90;;;;;;;12.64;nan;100222.75;10149187;28;20556;-84
2022/12/31 15:07:29;;;;;;;4.07;1.95;;;;;;;12.68;nan;100214.00;10160176;28;20564;-85
2022/12/31 15:12:58;;;;;;;2.85;1.38;;;;;;;12.78;nan;100228.88;10175410;28;20378;-84
2022/12/31 15:18:38;;;;;;;1.52;0.98;;;;;;;12.87;nan;100242.00;10162233;28;20205;-85
2022/12/31 15:23:45;;;;;;;6.13;2.53;;;;;;;12.96;nan;100258.66;10188452;28;20509;-84
2022/12/31 15:29:06;;;;;;;3.42;1.67;;;;;;;12.78;nan;100284.06;10174599;28;20355;-83
2022/12/31 15:34:35;;;;;;;21.88;7.05;;;;;;;12.58;nan;100283.16;10189166;28;20048;-85
2022/12/31 15:40:03;;;;;;;57.10;40.65;;;;;;;12.63;nan;100281.44;10159746;28;20366;-86
2022/12/31 15:45:41;;;;;;;11.90;8.98;;;;;;;12.85;nan;100272.66;10152311;28;20857;-82
2022/12/31 15:50:46;;;;;;;107.18;74.63;;;;;;;12.89;nan;100277.03;10169536;28;20962;-85
2022/12/31 15:56:03;;;;;;;45.88;28.00;;;;;;;12.85;nan;100256.00;10180925;28;20895;-85
2022/12/31 16:01:33;;;;;;;1.63;1.00;;;;;;;12.94;nan;100263.00;10179815;28;20930;-83
2022/12/31 16:06:48;;;;;;;1.05;0.88;;;;;;;12.87;nan;100260.41;10236578;28;20912;-85
2022/12/31 16:12:28;;;;;;;2.53;0.90;;;;;;;12.92;nan;100268.28;10231042;28;20299;-84
2022/12/31 16:31:05;;;;;;;8.38;1.80;;;;;;;12.78;nan;100286.69;10082578;28;20471;-85
2022/12/31 16:36:34;;;;;;;1.60;0.93;;;;;;;12.70;nan;100289.31;10240458;28;20313;-86
2022/12/31 16:41:42;;;;;;;9.02;2.20;;;;;;;12.67;nan;100283.16;10239981;28;20346;-84
2022/12/31 16:59:20;;;;;;;4.88;2.05;;;;;;;12.72;nan;100307.69;10105043;28;21011;-83
2022/12/31 17:04:26;;;;;;;2.97;1.17;;;;;;;12.72;nan;100303.31;10151116;28;20305;-82
2022/12/31 17:10:14;;;;;;;1.60;0.85;;;;;;;12.70;nan;100288.41;10138018;28;20471;-81
2022/12/31 17:15:43;;;;;;;0.80;0.60;;;;;;;12.71;nan;100287.53;10113648;28;20366;-83
2022/12/31 17:20:50;;;;;;;346.45;203.52;;;;;;;12.70;nan;100273.53;10069246;28;20398;-83
2022/12/31 17:26:12;;;;;;;36.95;19.35;;;;;;;12.71;nan;100274.41;10078646;28;20212;-82
2022/12/31 17:32:06;;;;;;;2.72;1.30;;;;;;;12.68;nan;100271.78;10089498;28;20213;-83
2022/12/31 17:37:43;;;;;;;2.92;1.30;;;;;;;12.63;nan;100263.91;10115982;28;20315;-83
2022/12/31 17:42:47;;;;;;;4.28;1.95;;;;;;;12.60;nan;100265.66;10107113;28;20299;-84
2022/12/31 17:48:00;;;;;;;5.30;1.40;;;;;;;12.53;nan;100263.00;10099189;28;20440;-84
2022/12/31 17:53:11;;;;;;;3.65;1.15;;;;;;;12.52;nan;100266.53;10089830;28;20382;-83
2022/12/31 17:58:23;;;;;;;3.40;1.58;;;;;;;12.53;nan;100267.41;10078705;28;20402;-85
2022/12/31 18:03:46;;;;;;;3.38;1.77;;;;;;;12.57;nan;100256.03;10071932;28;20388;-85
2022/12/31 18:09:21;;;;;;;6.00;2.00;;;;;;;12.61;nan;100254.25;10122864;28;20465;-84
2022/12/31 18:14:29;;;;;;;4.57;1.23;;;;;;;12.63;nan;100244.66;10150912;28;20346;-85
2022/12/31 18:19:42;;;;;;;3.53;1.13;;;;;;;12.67;nan;100262.16;10106434;28;20053;-84
2022/12/31 18:25:30;;;;;;;2.58;1.23;;;;;;;12.88;nan;100241.13;10098082;28;20504;-85
2022/12/31 18:30:36;;;;;;;6.95;2.58;;;;;;;12.97;nan;100236.72;10111616;28;20997;-85
2022/12/31 18:35:50;;;;;;;6.85;2.90;;;;;;;13.00;nan;100223.59;10150910;28;20383;-84
2022/12/31 18:41:27;;;;;;;1.95;1.30;;;;;;;12.95;nan;100262.16;10143083;28;20303;-83
2022/12/31 18:46:59;;;;;;;3.63;1.40;;;;;;;12.98;nan;100267.41;10135469;28;20405;-83
2022/12/31 18:52:03;;;;;;;1.65;0.77;;;;;;;12.99;nan;100259.50;10143552;28;20383;-83
2022/12/31 18:57:05;;;;;;;4.65;1.30;;;;;;;12.98;nan;100244.59;10096583;28;20903;-82
2022/12/31 19:02:26;;;;;;;1.48;0.68;;;;;;;12.91;nan;100259.53;10066952;28;20465;-83
2022/12/31 19:07:28;;;;;;;4.32;1.35;;;;;;;12.97;nan;100255.13;10093258;28;20508;-85
2022/12/31 19:13:44;;;;;;;;;;;;;;;;;;;;;
2022/12/31 19:19:23;;;;;;;2.35;1.63;;;;;;;12.99;nan;100237.63;10034579;28;20433;-85
2022/12/31 19:24:31;;;;;;;7.28;2.72;;;;;;;13.05;nan;100234.97;10057143;28;20287;-86
2022/12/31 19:29:33;;;;;;;1.70;0.70;;;;;;;13.16;nan;100217.41;10092954;28;20509;-83
2022/12/31 19:34:35;;;;;;;2.08;1.00;;;;;;;13.14;nan;100249.88;10310227;28;20104;-83
2022/12/31 19:39:36;;;;;;;2.10;1.20;;;;;;;13.15;nan;100262.09;10368400;28;20038;-80
2022/12/31 19:44:38;;;;;;;1.20;0.70;;;;;;;13.26;nan;100249.84;10334309;28;20034;-80
2022/12/31 19:49:39;;;;;;;1.98;0.63;;;;;;;13.34;nan;100257.72;10346313;28;20783;-83
2022/12/31 19:54:41;;;;;;;1.73;1.10;;;;;;;13.32;nan;100247.19;10363396;28;20061;-80
2022/12/31 19:59:43;;;;;;;5.88;1.38;;;;;;;13.42;nan;100255.94;10176870;28;20411;-85
2022/12/31 20:04:46;;;;;;;2.88;1.13;;;;;;;13.47;nan;100267.34;10086759;28;20328;-84
2022/12/31 20:09:52;;;;;;;9.07;3.70;;;;;;;13.50;nan;100250.69;10075436;28;20450;-84
2022/12/31 20:14:56;;;;;;;2.17;1.52;;;;;;;13.54;nan;100253.28;10110499;28;20303;-84
2022/12/31 20:20:37;;;;;;;3.20;1.30;;;;;;;13.60;nan;100265.50;10139084;28;20312;-86
2022/12/31 20:26:03;;;;;;;2.95;1.13;;;;;;;13.66;nan;100272.53;10119460;28;20057;-87
2022/12/31 20:32:19;;;;;;;1.40;0.90;;;;;;;13.71;nan;100279.53;10167204;28;20341;-87
2022/12/31 20:38:04;;;;;;;12.98;6.95;;;;;;;13.79;nan;100274.22;10153182;28;20973;-88
2022/12/31 20:43:08;;;;;;;3.92;1.65;;;;;;;13.94;nan;100258.34;10074750;28;20319;-88
2022/12/31 20:48:10;;;;;;;2.55;1.10;;;;;;;13.84;nan;100248.78;10062130;28;20495;-87
2022/12/31 20:53:12;;;;;;;0.28;0.28;;;;;;;13.90;nan;100251.38;10192710;28;20825;-88
2022/12/31 20:58:14;;;;;;;2.20;0.80;;;;;;;13.89;nan;100256.66;10267328;28;20049;-86
2022/12/31 21:03:19;;;;;;;1.33;0.88;;;;;;;13.96;nan;100274.13;10244364;28;20049;-85
2022/12/31 21:08:41;;;;;;;1.55;0.85;;;;;;;13.74;nan;100289.16;10257676;28;20614;-88
2022/12/31 21:13:43;;;;;;;3.33;1.17;;;;;;;13.73;nan;100290.91;10237372;28;20042;-88
2022/12/31 21:19:41;;;;;;;1.33;0.63;;;;;;;13.71;nan;100294.44;10200445;28;20904;-88
2022/12/31 21:26:32;;;;;;;1.90;0.88;;;;;;;13.70;nan;100305.84;10154585;28;20667;-89
2022/12/31 21:33:10;;;;;;;;;;;;;;;;;;;;;
2022/12/31 22:22:42;;;;;;;5.78;1.27;;;;;;;13.90;72.52;100335.59;10159536;27;21363;-70
2022/12/31 22:33:46;;;;;;;2.75;1.25;;;;;;;13.81;72.56;100327.75;10124527;28;20788;-70
2022/12/31 22:38:59;;;;;;;2.88;1.20;;;;;;;13.87;72.17;100359.28;10231464;28;20381;-70
2022/12/31 22:44:20;;;;;;;1.83;0.90;;;;;;;13.86;72.15;100359.31;10171642;28;20216;-71
2022/12/31 22:49:24;;;;;;;2.35;1.05;;;;;;;13.74;72.18;100360.22;10161483;28;20776;-70
2022/12/31 22:55:04;;;;;;;3.22;0.73;;;;;;;13.81;72.07;100358.41;10127270;28;20343;-70
2022/12/31 23:06:43;;;;;;;13.45;5.22;;;;;;;13.78;71.83;100356.66;10219335;28;20457;-71
2022/12/31 23:24:30;;;;;;;6.70;3.20;;;;;;;13.74;71.72;100387.38;10112925;28;20459;-70
2022/12/31 23:30:15;;;;;;;10.35;4.53;;;;;;;13.86;71.11;100389.13;10059142;28;20527;-71
2022/12/31 23:36:46;;;;;;;10.40;3.03;;;;;;;13.75;71.38;100385.63;9919797;29;20847;-70
